Time;durP1;ratioP1;P1;durP2;ratioP2;P2;SDS_P1;SDS_P2;PMS_P1;PMS_P2;Temp;Humidity;BMP_temperature;BMP_pressure;BME280_temperature;BME280_humidity;BME280_pressure;Samples;Min_cycle;Max_cycle;Signal;HPM_P1;HPM_P2
2021/03/20 00:00:56;;;;;;;;;;;;;;;;;;2074210;28;19929;-76
2021/03/20 00:02:01;;;;;;;;;;;;;;;;;;2084001;28;19928;-76
2021/03/20 00:03:04;;;;;;;;;;;;;;;;;;2081463;28;19921;-76
2021/03/20 00:04:08;;;;;;;;;;;;;;;;;;2067382;28;19922;-76
2021/03/20 00:05:13;;;;;;;;;;;;;;;;;;2081939;28;20056;-76
2021/03/20 00:06:18;;;;;;;;;;;;;;;;;;2074099;28;19921;-76
2021/03/20 00:07:20;;;;;;;;;;;;;;;;;;2067747;28;19972;-77
2021/03/20 00:08:23;;;;;;;;;;;;;;;;;;2082903;28;19921;-77
2021/03/20 00:09:28;;;;;;;;;;;;;;;;;;2090711;28;19928;-77
2021/03/20 00:10:32;;;;;;;;;;;;;;;;;;2089756;28;19974;-77
2021/03/20 00:11:35;;;;;;;;;;;;;;;;;;2082890;28;19967;-76
2021/03/20 00:12:39;;;;;;;;;;;;;;;;;;2082340;28;19960;-76
2021/03/20 00:13:43;;;;;;;;;;;;;;;;;;2082697;28;19921;-75
2021/03/20 00:14:46;;;;;;;;;;;;;;;;;;2082384;28;20431;-76
2021/03/20 00:15:56;;;;;;;;;;;;;;;;;;2074743;28;19928;-76
2021/03/20 00:16:59;;;;;;;;;;;;;;;;;;2074039;28;19929;-76
2021/03/20 00:18:04;;;;;;;;;;;;;;;;;;2076082;28;19964;-76
2021/03/20 00:19:09;;;;;;;;;;;;;;;;;;2082871;28;20396;-76
2021/03/20 00:20:19;;;;;;;;;;;;;;;;;;2074945;28;19975;-76
2021/03/20 00:21:24;;;;;;;;;;;;;;;;;;2081894;28;20385;-76
2021/03/20 00:22:29;;;;;;;;;;;;;;;;;;2075195;28;19928;-76
2021/03/20 00:23:33;;;;;;;;;;;;;;;;;;2075953;28;19956;-79
2021/03/20 00:24:37;;;;;;;;;;;;;;;;;;2085031;28;19927;-78
2021/03/20 00:25:38;;;;;;;;;;;;;;;;;;2083964;28;20383;-78
2021/03/20 00:26:42;;;;;;;;;;;;;;;;;;2091001;28;19920;-78
2021/03/20 00:27:47;;;;;;;;;;;;;;;;;;2081354;28;19921;-78
2021/03/20 00:28:53;;;;;;;;;;;;;;;;;;2083213;28;19928;-78
2021/03/20 00:29:57;;;;;;;;;;;;;;;;;;2081220;28;20377;-78
2021/03/20 00:31:02;;;;;;;;;;;;;;;;;;2083746;28;19921;-78
2021/03/20 00:32:07;;;;;;;;;;;;;;;;;;2089217;28;20409;-78
2021/03/20 00:33:11;;;;;;;;;;;;;;;;;;2074761;28;20297;-77
2021/03/20 00:34:13;;;;;;;;;;;;;;;;;;2066130;28;19922;-78
2021/03/20 00:35:18;;;;;;;;;;;;;;;;;;2067119;28;20270;-78
2021/03/20 00:36:20;;;;;;;;;;;;;;;;;;2082894;28;20081;-77
2021/03/20 00:37:36;;;;;;;;;;;;;;;;;;2082976;28;20361;-78
2021/03/20 00:38:38;;;;;;;;;;;;;;;;;;2083412;28;19921;-78
2021/03/20 00:39:43;;;;;;;;;;;;;;;;;;2082195;28;19943;-78
2021/03/20 00:40:47;;;;;;;;;;;;;;;;;;2082582;28;19921;-78
2021/03/20 00:41:52;;;;;;;;;;;;;;;;;;2082503;28;20381;-78
2021/03/20 00:42:57;;;;;;;;;;;;;;;;;;2081945;28;20303;-77
2021/03/20 00:43:58;;;;;;;;;;;;;;;;;;2075279;28;19921;-78
2021/03/20 00:45:03;;;;;;;;;;;;;;;;;;2074082;28;19922;-78
2021/03/20 00:46:09;;;;;;;;;;;;;;;;;;2074898;28;19937;-78
2021/03/20 00:47:13;;;;;;;;;;;;;;;;;;2081970;28;20381;-78
2021/03/20 00:48:16;;;;;;;;;;;;;;;;;;2082800;28;20019;-78
2021/03/20 00:49:17;;;;;;;;;;;;;;;;;;2082775;28;19925;-78
2021/03/20 00:50:23;;;;;;;;;;;;;;;;;;2082163;28;19921;-78
2021/03/20 00:51:28;;;;;;;;;;;;;;;;;;2082601;28;19921;-78
2021/03/20 00:52:32;;;;;;;;;;;;;;;;;;2082350;28;19921;-78
2021/03/20 00:53:36;;;;;;;;;;;;;;;;;;2074281;28;20293;-78
2021/03/20 00:54:40;;;;;;;;;;;;;;;;;;2067885;28;19965;-76
2021/03/20 00:55:45;;;;;;;;;;;;;;;;;;2074980;28;19922;-75
2021/03/20 00:56:48;;;;;;;;;;;;;;;;;;2073524;28;19968;-76
2021/03/20 00:57:54;;;;;;;;;;;;;;;;;;2075087;28;20341;-76
2021/03/20 00:58:58;;;;;;;;;;;;;;;;;;2074639;28;19984;-76
2021/03/20 00:59:59;;;;;;;;;;;;;;;;;;2075161;28;19971;-76
2021/03/20 01:01:05;;;;;;;;;;;;;;;;;;2066237;28;19922;-75
2021/03/20 01:02:10;;;;;;;;;;;;;;;;;;2067844;28;19929;-75
2021/03/20 01:03:14;;;;;;;;;;;;;;;;;;2066805;28;19999;-77
2021/03/20 01:04:18;;;;;;;;;;;;;;;;;;2066273;28;19921;-75
2021/03/20 01:05:22;;;;;;;;;;;;;;;;;;2074944;28;19921;-76
2021/03/20 01:06:28;;;;;;;;;;;;;;;;;;2082402;28;19925;-75
2021/03/20 01:07:32;;;;;;;;;;;;;;;;;;2081088;28;19921;-75
2021/03/20 01:08:36;;;;;;;;;;;;;;;;;;2082738;28;19921;-76
2021/03/20 01:09:42;;;;;;;;;;;;;;;;;;2081047;28;20388;-76
2021/03/20 01:10:46;;;;;;;;;;;;;;;;;;2074675;28;19960;-75
2021/03/20 01:11:47;;;;;;;;;;;;;;;;;;2090665;28;19921;-75
2021/03/20 01:12:51;;;;;;;;;;;;;;;;;;2081636;28;20303;-77
2021/03/20 01:13:56;;;;;;;;;;;;;;;;;;2082799;28;19921;-75
2021/03/20 01:14:59;;;;;;;;;;;;;;;;;;2082500;28;20358;-76
2021/03/20 01:16:04;;;;;;;;;;;;;;;;;;2074531;28;20004;-76
2021/03/20 01:17:05;;;;;;;;;;;;;;;;;;2075227;28;19968;-76
2021/03/20 01:18:09;;;;;;;;;;;;;;;;;;2073389;28;19921;-76
2021/03/20 01:19:13;;;;;;;;;;;;;;;;;;2074114;28;19968;-76
2021/03/20 01:20:17;;;;;;;;;;;;;;;;;;2073798;28;19993;-76
2021/03/20 01:21:19;;;;;;;;;;;;;;;;;;2074701;28;19927;-76
2021/03/20 01:22:23;;;;;;;;;;;;;;;;;;2074004;28;19928;-77
2021/03/20 01:23:27;;;;;;;;;;;;;;;;;;2066043;28;19933;-77
2021/03/20 01:24:32;;;;;;;;;;;;;;;;;;2074274;28;19921;-77
2021/03/20 01:25:36;;;;;;;;;;;;;;;;;;2082020;28;20262;-78
2021/03/20 01:26:38;;;;;;;;;;;;;;;;;;2081882;28;20440;-78
2021/03/20 01:27:42;;;;;;;;;;;;;;;;;;2081700;28;19991;-78
2021/03/20 01:28:46;;;;;;;;;;;;;;;;;;2081524;28;19921;-77
2021/03/20 01:29:50;;;;;;;;;;;;;;;;;;2082178;28;19967;-77
2021/03/20 01:30:54;;;;;;;;;;;;;;;;;;2082436;28;20320;-77
2021/03/20 01:31:59;;;;;;;;;;;;;;;;;;2074152;28;19921;-77
2021/03/20 01:33:03;;;;;;;;;;;;;;;;;;2074261;28;19951;-77
2021/03/20 01:34:08;;;;;;;;;;;;;;;;;;2066372;28;19922;-76
2021/03/20 01:35:13;;;;;;;;;;;;;;;;;;2059012;28;19969;-76
2021/03/20 01:36:15;;;;;;;;;;;;;;;;;;2074918;28;19975;-76
2021/03/20 01:37:19;;;;;;;;;;;;;;;;;;2081633;28;20443;-76
2021/03/20 01:38:24;;;;;;;;;;;;;;;;;;2082021;28;19990;-76
2021/03/20 01:39:28;;;;;;;;;;;;;;;;;;2073317;28;19922;-76
2021/03/20 01:40:33;;;;;;;;;;;;;;;;;;2066799;28;19976;-76
2021/03/20 01:41:34;;;;;;;;;;;;;;;;;;2082229;28;20020;-75
2021/03/20 01:42:42;;;;;;;;;;;;;;;;;;2082394;28;19928;-76
2021/03/20 01:43:47;;;;;;;;;;;;;;;;;;2073808;28;19925;-76
2021/03/20 01:45:12;;;;;;;;;;;;;;;;;;2058413;28;20366;-76
2021/03/20 01:46:33;;;;;;;;;;;;;;;;;;2075377;28;20012;-76
2021/03/20 01:47:43;;;;;;;;;;;;;;;;;;2081800;28;19928;-76
2021/03/20 01:48:45;;;;;;;;;;;;;;;;;;2090734;28;19921;-76
2021/03/20 01:49:47;;;;;;;;;;;;;;;;;;2082289;28;19979;-77
2021/03/20 01:50:48;;;;;;;;;;;;;;;;;;2073549;28;19926;-76
2021/03/20 01:51:55;;;;;;;;;;;;;;;;;;2081146;28;20293;-76
2021/03/20 01:53:02;;;;;;;;;;;;;;;;;;2082228;28;19925;-76
2021/03/20 01:54:03;;;;;;;;;;;;;;;;;;2090319;28;19964;-76
2021/03/20 01:55:07;;;;;;;;;;;;;;;;;;2082974;28;19921;-76
2021/03/20 01:56:11;;;;;;;;;;;;;;;;;;2084725;28;19921;-76
2021/03/20 01:57:17;;;;;;;;;;;;;;;;;;2090875;28;19967;-78
2021/03/20 01:58:21;;;;;;;;;;;;;;;;;;2088814;28;20384;-78
2021/03/20 01:59:25;;;;;;;;;;;;;;;;;;2082419;28;20308;-78
2021/03/20 02:00:35;;;;;;;;;;;;;;;;;;2073507;28;19921;-78
2021/03/20 02:01:39;;;;;;;;;;;;;;;;;;2068661;28;19922;-78
2021/03/20 02:02:43;;;;;;;;;;;;;;;;;;2073816;28;19988;-77
2021/03/20 02:03:49;;;;;;;;;;;;;;;;;;2074669;28;19925;-77
2021/03/20 02:04:53;;;;;;;;;;;;;;;;;;2066052;28;20317;-77
2021/03/20 02:05:54;;;;;;;;;;;;;;;;;;2074056;28;19921;-77
2021/03/20 02:06:58;;;;;;;;;;;;;;;;;;2073211;28;20416;-77
2021/03/20 02:08:04;;;;;;;;;;;;;;;;;;2066302;28;19956;-79
2021/03/20 02:09:10;;;;;;;;;;;;;;;;;;2074296;28;20409;-79
2021/03/20 02:10:15;;;;;;;;;;;;;;;;;;2073162;28;19929;-79
2021/03/20 02:11:27;;;;;;;;;;;;;;;;;;2065733;28;19921;-78
2021/03/20 02:12:33;;;;;;;;;;;;;;;;;;2068569;28;20294;-78
2021/03/20 02:13:39;;;;;;;;;;;;;;;;;;2081964;28;19970;-79
2021/03/20 02:14:59;;;;;;;;;;;;;;;;;;2082510;28;20300;-78
2021/03/20 02:16:21;;;;;;;;;;;;;;;;;;2089361;28;19924;-78
2021/03/20 02:17:31;;;;;;;;;;;;;;;;;;2086056;28;19921;-79
2021/03/20 02:18:35;;;;;;;;;;;;;;;;;;2091664;28;20269;-79
2021/03/20 02:19:50;;;;;;;;;;;;;;;;;;2088316;28;19928;-79
2021/03/20 02:21:13;;;;;;;;;;;;;;;;;;2081349;28;20340;-79
2021/03/20 02:22:21;;;;;;;;;;;;;;;;;;2090556;28;20354;-78
2021/03/20 02:23:43;;;;;;;;;;;;;;;;;;2088849;28;20384;-79
2021/03/20 02:24:59;;;;;;;;;;;;;;;;;;2082616;28;19968;-77
2021/03/20 02:26:12;;;;;;;;;;;;;;;;;;2089354;28;19975;-77
2021/03/20 02:27:16;;;;;;;;;;;;;;;;;;2088877;28;19924;-77
2021/03/20 02:28:20;;;;;;;;;;;;;;;;;;2089369;28;19921;-77
2021/03/20 02:29:36;;;;;;;;;;;;;;;;;;2089736;28;19921;-76
2021/03/20 02:30:40;;;;;;;;;;;;;;;;;;2083094;28;19921;-77
2021/03/20 02:31:56;;;;;;;;;;;;;;;;;;2090260;28;19928;-77
2021/03/20 02:33:05;;;;;;;;;;;;;;;;;;2088217;28;19920;-77
2021/03/20 02:34:29;;;;;;;;;;;;;;;;;;2091336;28;19988;-77
2021/03/20 02:35:48;;;;;;;;;;;;;;;;;;2094095;28;19928;-77
2021/03/20 02:37:14;;;;;;;;;;;;;;;;;;2087004;28;20277;-77
2021/03/20 02:38:30;;;;;;;;;;;;;;;;;;2073482;28;19921;-77
2021/03/20 02:39:31;;;;;;;;;;;;;;;;;;2082259;28;20120;-78
2021/03/20 02:40:32;;;;;;;;;;;;;;;;;;2082081;28;19929;-78
2021/03/20 02:41:52;;;;;;;;;;;;;;;;;;2082657;28;19921;-78
2021/03/20 02:42:55;;;;;;;;;;;;;;;;;;2089231;28;20389;-77
2021/03/20 02:44:05;;;;;;;;;;;;;;;;;;2090289;28;19925;-77
2021/03/20 02:45:06;;;;;;;;;;;;;;;;;;2082378;28;19929;-77
2021/03/20 02:46:19;;;;;;;;;;;;;;;;;;2089282;28;19978;-77
2021/03/20 02:47:22;;;;;;;;;;;;;;;;;;2087615;28;20015;-78
2021/03/20 02:48:36;;;;;;;;;;;;;;;;;;2081937;28;19921;-78
2021/03/20 02:49:54;;;;;;;;;;;;;;;;;;2082975;28;19921;-77
2021/03/20 02:51:08;;;;;;;;;;;;;;;;;;2082508;28;20007;-77
2021/03/20 02:52:17;;;;;;;;;;;;;;;;;;2082113;28;20389;-78
2021/03/20 02:53:26;;;;;;;;;;;;;;;;;;2081550;28;19921;-78
2021/03/20 02:54:30;;;;;;;;;;;;;;;;;;2074989;28;20000;-77
2021/03/20 02:55:36;;;;;;;;;;;;;;;;;;2073669;28;19983;-77
2021/03/20 02:56:46;;;;;;;;;;;;;;;;;;2066068;28;19922;-77
2021/03/20 02:58:01;;;;;;;;;;;;;;;;;;2074584;28;19921;-77
2021/03/20 02:59:10;;;;;;;;;;;;;;;;;;2081091;28;19961;-77
2021/03/20 03:00:13;;;;;;;;;;;;;;;;;;2074789;28;19921;-76
2021/03/20 03:01:18;;;;;;;;;;;;;;;;;;2073835;28;19967;-77
2021/03/20 03:02:24;;;;;;;;;;;;;;;;;;2073184;28;20067;-77
2021/03/20 03:03:35;;;;;;;;;;;;;;;;;;2074983;28;19921;-75
2021/03/20 03:04:51;;;;;;;;;;;;;;;;;;2089147;28;19924;-76
2021/03/20 03:06:10;;;;;;;;;;;;;;;;;;2078964;28;19928;-76
2021/03/20 03:07:11;;;;;;;;;;;;;;;;;;2086413;28;19957;-76
2021/03/20 03:08:22;;;;;;;;;;;;;;;;;;2088823;28;19921;-76
2021/03/20 03:09:50;;;;;;;;;;;;;;;;;;2092644;28;19960;-76
2021/03/20 03:10:56;;;;;;;;;;;;;;;;;;2086794;28;19921;-76
2021/03/20 03:12:07;;;;;;;;;;;;;;;;;;2082092;28;19967;-76
2021/03/20 03:13:08;;;;;;;;;;;;;;;;;;2082475;28;19960;-75
2021/03/20 03:14:18;;;;;;;;;;;;;;;;;;2081776;28;19928;-77
2021/03/20 03:15:30;;;;;;;;;;;;;;;;;;2081587;28;20331;-77
2021/03/20 03:16:38;;;;;;;;;;;;;;;;;;2081508;28;19921;-77
2021/03/20 03:17:51;;;;;;;;;;;;;;;;;;2075055;28;19928;-76
2021/03/20 03:18:57;;;;;;;;;;;;;;;;;;2076946;28;19930;-76
2021/03/20 03:20:09;;;;;;;;;;;;;;;;;;2082457;28;19921;-77
2021/03/20 03:21:15;;;;;;;;;;;;;;;;;;2084449;28;20373;-77
2021/03/20 03:22:24;;;;;;;;;;;;;;;;;;2089762;28;19975;-77
2021/03/20 03:23:29;;;;;;;;;;;;;;;;;;2082698;28;19921;-77
2021/03/20 03:24:34;;;;;;;;;;;;;;;;;;2091492;28;20246;-77
2021/03/20 03:25:39;;;;;;;;;;;;;;;;;;2081657;28;20415;-77
2021/03/20 03:26:41;;;;;;;;;;;;;;;;;;2085176;28;20367;-78
2021/03/20 03:27:45;;;;;;;;;;;;;;;;;;2101907;28;19920;-78
2021/03/20 03:28:51;;;;;;;;;;;;;;;;;;2091167;28;19973;-76
2021/03/20 03:29:56;;;;;;;;;;;;;;;;;;2089987;28;19967;-76
2021/03/20 03:30:59;;;;;;;;;;;;;;;;;;2083681;28;20258;-76
2021/03/20 03:32:06;;;;;;;;;;;;;;;;;;2082691;28;19921;-76
2021/03/20 03:33:21;;;;;;;;;;;;;;;;;;2075784;28;19955;-76
2021/03/20 03:34:31;;;;;;;;;;;;;;;;;;2082384;28;19963;-78
2021/03/20 03:35:35;;;;;;;;;;;;;;;;;;2082779;28;19974;-78
2021/03/20 03:36:49;;;;;;;;;;;;;;;;;;2083530;28;19987;-78
2021/03/20 03:38:12;;;;;;;;;;;;;;;;;;2091477;28;20368;-77
2021/03/20 03:39:20;;;;;;;;;;;;;;;;;;2087961;28;19964;-76
2021/03/20 03:40:25;;;;;;;;;;;;;;;;;;2082974;28;19957;-78
2021/03/20 03:41:33;;;;;;;;;;;;;;;;;;2083378;28;19936;-76
2021/03/20 03:42:37;;;;;;;;;;;;;;;;;;2083464;28;19940;-77
2021/03/20 03:43:42;;;;;;;;;;;;;;;;;;2067716;28;20164;-75
2021/03/20 03:44:47;;;;;;;;;;;;;;;;;;2068057;28;20021;-75
2021/03/20 03:45:48;;;;;;;;;;;;;;;;;;2083025;28;19964;-75
2021/03/20 03:46:53;;;;;;;;;;;;;;;;;;2083334;28;19972;-76
2021/03/20 03:47:58;;;;;;;;;;;;;;;;;;2090937;28;19921;-76
2021/03/20 03:49:04;;;;;;;;;;;;;;;;;;2081727;28;19920;-77
2021/03/20 03:50:10;;;;;;;;;;;;;;;;;;2085025;28;19944;-76
2021/03/20 03:51:15;;;;;;;;;;;;;;;;;;2089881;28;19959;-76
2021/03/20 03:52:19;;;;;;;;;;;;;;;;;;2082874;28;19921;-77
2021/03/20 03:53:23;;;;;;;;;;;;;;;;;;2066799;28;19922;-77
2021/03/20 03:54:29;;;;;;;;;;;;;;;;;;2075053;28;19922;-77
2021/03/20 03:55:33;;;;;;;;;;;;;;;;;;2090715;28;19974;-77
2021/03/20 03:56:46;;;;;;;;;;;;;;;;;;2090844;28;20384;-77
2021/03/20 03:58:14;;;;;;;;;;;;;;;;;;2083579;28;20389;-77
2021/03/20 03:59:17;;;;;;;;;;;;;;;;;;2074589;28;19926;-77
2021/03/20 04:00:36;;;;;;;;;;;;;;;;;;2082583;28;20011;-77
2021/03/20 04:01:46;;;;;;;;;;;;;;;;;;2087726;28;19996;-76
2021/03/20 04:03:09;;;;;;;;;;;;;;;;;;2082382;28;19921;-76
2021/03/20 04:04:15;;;;;;;;;;;;;;;;;;2090410;28;19990;-77
2021/03/20 04:05:29;;;;;;;;;;;;;;;;;;2089367;28;19920;-77
2021/03/20 04:06:49;;;;;;;;;;;;;;;;;;2092442;28;19999;-77
2021/03/20 04:07:53;;;;;;;;;;;;;;;;;;2087897;28;19929;-78
2021/03/20 04:08:54;;;;;;;;;;;;;;;;;;2090813;28;19968;-77
2021/03/20 04:10:01;;;;;;;;;;;;;;;;;;2090582;28;19979;-77
2021/03/20 04:11:11;;;;;;;;;;;;;;;;;;2082548;28;20353;-77
2021/03/20 04:12:18;;;;;;;;;;;;;;;;;;2090546;28;19921;-77
2021/03/20 04:13:39;;;;;;;;;;;;;;;;;;2090226;28;19928;-77
2021/03/20 04:14:49;;;;;;;;;;;;;;;;;;2093737;28;19963;-77
2021/03/20 04:16:07;;;;;;;;;;;;;;;;;;2089868;28;20026;-77
2021/03/20 04:17:14;;;;;;;;;;;;;;;;;;2083491;28;19921;-76
2021/03/20 04:18:38;;;;;;;;;;;;;;;;;;2091197;28;19924;-75
2021/03/20 04:19:50;;;;;;;;;;;;;;;;;;2079964;28;19972;-76
2021/03/20 04:21:09;;;;;;;;;;;;;;;;;;2076198;28;19921;-75
2021/03/20 04:22:28;;;;;;;;;;;;;;;;;;2082380;28;19975;-76
2021/03/20 04:23:40;;;;;;;;;;;;;;;;;;2090320;28;20401;-76
2021/03/20 04:24:50;;;;;;;;;;;;;;;;;;2088639;28;19928;-75
2021/03/20 04:25:53;;;;;;;;;;;;;;;;;;2082190;28;19940;-75
2021/03/20 04:27:02;;;;;;;;;;;;;;;;;;2074498;28;19926;-75
2021/03/20 04:28:16;;;;;;;;;;;;;;;;;;2075593;28;19922;-75
2021/03/20 04:29:29;;;;;;;;;;;;;;;;;;2082532;28;19928;-75
2021/03/20 04:30:32;;;;;;;;;;;;;;;;;;2083995;28;19928;-75
2021/03/20 04:31:38;;;;;;;;;;;;;;;;;;2090627;28;20015;-75
2021/03/20 04:32:46;;;;;;;;;;;;;;;;;;2091031;28;19920;-77
2021/03/20 04:33:57;;;;;;;;;;;;;;;;;;2082810;28;20323;-75
2021/03/20 04:35:07;;;;;;;;;;;;;;;;;;2082762;28;19928;-77
2021/03/20 04:36:28;;;;;;;;;;;;;;;;;;2093077;28;19921;-75
2021/03/20 04:37:32;;;;;;;;;;;;;;;;;;2094286;28;19928;-76
2021/03/20 04:38:37;;;;;;;;;;;;;;;;;;2091146;28;19924;-75
2021/03/20 04:39:44;;;;;;;;;;;;;;;;;;2082186;28;19921;-75
2021/03/20 04:40:47;;;;;;;;;;;;;;;;;;2082032;28;20329;-75
2021/03/20 04:41:52;;;;;;;;;;;;;;;;;;2082908;28;20358;-75
2021/03/20 04:42:53;;;;;;;;;;;;;;;;;;2090566;28;19921;-76
2021/03/20 04:43:56;;;;;;;;;;;;;;;;;;2090919;28;20308;-75
2021/03/20 04:45:20;;;;;;;;;;;;;;;;;;2089288;28;20423;-77
2021/03/20 04:46:23;;;;;;;;;;;;;;;;;;2082426;28;20012;-76
2021/03/20 04:47:28;;;;;;;;;;;;;;;;;;2083119;28;19925;-77
2021/03/20 04:48:36;;;;;;;;;;;;;;;;;;2090665;28;19982;-77
2021/03/20 04:49:43;;;;;;;;;;;;;;;;;;2089093;28;19921;-77
2021/03/20 04:50:51;;;;;;;;;;;;;;;;;;2091290;28;20534;-77
2021/03/20 04:51:58;;;;;;;;;;;;;;;;;;2080610;28;19921;-77
2021/03/20 04:53:05;;;;;;;;;;;;;;;;;;2069485;28;19953;-77
2021/03/20 04:54:12;;;;;;;;;;;;;;;;;;2066586;28;20046;-77
2021/03/20 04:55:16;;;;;;;;;;;;;;;;;;2075089;28;20412;-76
2021/03/20 04:56:20;;;;;;;;;;;;;;;;;;2082346;28;20013;-77
2021/03/20 04:57:32;;;;;;;;;;;;;;;;;;2082398;28;19921;-76
2021/03/20 04:58:44;;;;;;;;;;;;;;;;;;2077633;28;19925;-75
2021/03/20 04:59:51;;;;;;;;;;;;;;;;;;2077240;28;20012;-77
2021/03/20 05:01:01;;;;;;;;;;;;;;;;;;2082690;28;19966;-77
2021/03/20 05:02:12;;;;;;;;;;;;;;;;;;2092400;28;19977;-76
2021/03/20 05:03:31;;;;;;;;;;;;;;;;;;2088718;28;19967;-77
2021/03/20 05:04:39;;;;;;;;;;;;;;;;;;2081903;28;19929;-77
2021/03/20 05:05:57;;;;;;;;;;;;;;;;;;2066783;28;20309;-78
2021/03/20 05:07:01;;;;;;;;;;;;;;;;;;2076279;28;20393;-77
2021/03/20 05:08:07;;;;;;;;;;;;;;;;;;2081852;28;19944;-77
2021/03/20 05:09:14;;;;;;;;;;;;;;;;;;2083044;28;19921;-77
2021/03/20 05:10:32;;;;;;;;;;;;;;;;;;2083149;28;19928;-77
2021/03/20 05:11:39;;;;;;;;;;;;;;;;;;2082497;28;20376;-77
2021/03/20 05:12:40;;;;;;;;;;;;;;;;;;2082975;28;20373;-76
2021/03/20 05:13:47;;;;;;;;;;;;;;;;;;2082240;28;19947;-76
2021/03/20 05:14:57;;;;;;;;;;;;;;;;;;2082007;28;19968;-76
2021/03/20 05:16:01;;;;;;;;;;;;;;;;;;2090203;28;20318;-76
2021/03/20 05:17:10;;;;;;;;;;;;;;;;;;2089372;28;20004;-76
2021/03/20 05:18:15;;;;;;;;;;;;;;;;;;2091401;28;19975;-75
2021/03/20 05:19:19;;;;;;;;;;;;;;;;;;2081008;28;20295;-76
2021/03/20 05:20:25;;;;;;;;;;;;;;;;;;2067358;28;19922;-76
2021/03/20 05:21:30;;;;;;;;;;;;;;;;;;2066643;28;19961;-76
2021/03/20 05:22:35;;;;;;;;;;;;;;;;;;2067861;28;19922;-77
2021/03/20 05:23:36;;;;;;;;;;;;;;;;;;2082762;28;19932;-77
2021/03/20 05:24:40;;;;;;;;;;;;;;;;;;2090023;28;19928;-77
2021/03/20 05:25:45;;;;;;;;;;;;;;;;;;2081387;28;19991;-77
2021/03/20 05:26:49;;;;;;;;;;;;;;;;;;2081582;28;19921;-78
2021/03/20 05:27:53;;;;;;;;;;;;;;;;;;2082026;28;19967;-78
2021/03/20 05:28:56;;;;;;;;;;;;;;;;;;2081955;28;19928;-78
2021/03/20 05:29:58;;;;;;;;;;;;;;;;;;2082517;28;20012;-78
2021/03/20 05:31:00;;;;;;;;;;;;;;;;;;2083032;28;19960;-78
2021/03/20 05:32:05;;;;;;;;;;;;;;;;;;2089964;28;19921;-78
2021/03/20 05:33:06;;;;;;;;;;;;;;;;;;2082366;28;19971;-78
2021/03/20 05:34:16;;;;;;;;;;;;;;;;;;2082463;28;19928;-78
2021/03/20 05:35:23;;;;;;;;;;;;;;;;;;2089988;28;19921;-77
2021/03/20 05:36:27;;;;;;;;;;;;;;;;;;2081986;28;20011;-78
2021/03/20 05:37:38;;;;;;;;;;;;;;;;;;2082671;28;20013;-78
2021/03/20 05:38:42;;;;;;;;;;;;;;;;;;2082531;28;20257;-78
2021/03/20 05:39:46;;;;;;;;;;;;;;;;;;2081360;28;19921;-78
2021/03/20 05:40:57;;;;;;;;;;;;;;;;;;2081813;28;19921;-78
2021/03/20 05:42:01;;;;;;;;;;;;;;;;;;2082346;28;19921;-78
2021/03/20 05:43:08;;;;;;;;;;;;;;;;;;2082781;28;19921;-78
2021/03/20 05:44:31;;;;;;;;;;;;;;;;;;2090051;28;19927;-78
2021/03/20 05:45:40;;;;;;;;;;;;;;;;;;2086852;28;19921;-79
2021/03/20 05:46:49;;;;;;;;;;;;;;;;;;2090421;28;19921;-79
2021/03/20 05:48:02;;;;;;;;;;;;;;;;;;2089482;28;20017;-79
2021/03/20 05:49:27;;;;;;;;;;;;;;;;;;2082867;28;20009;-78
2021/03/20 05:50:34;;;;;;;;;;;;;;;;;;2089481;28;19921;-79
2021/03/20 05:51:41;;;;;;;;;;;;;;;;;;2088508;28;19921;-76
2021/03/20 05:52:54;;;;;;;;;;;;;;;;;;2081409;28;19959;-76
2021/03/20 05:54:01;;;;;;;;;;;;;;;;;;2082790;28;20276;-76
2021/03/20 05:55:14;;;;;;;;;;;;;;;;;;2082789;28;20015;-76
2021/03/20 05:56:22;;;;;;;;;;;;;;;;;;2082113;28;19928;-76
2021/03/20 05:57:27;;;;;;;;;;;;;;;;;;2082503;28;19970;-78
2021/03/20 05:58:59;;;;;;;;;;;;;;;;;;2089631;28;20446;-77
2021/03/20 06:00:21;;;;;;;;;;;;;;;;;;2082511;28;19928;-77
2021/03/20 06:01:45;;;;;;;;;;;;;;;;;;2076684;28;20008;-77
2021/03/20 06:02:46;;;;;;;;;;;;;;;;;;2076989;28;19968;-77
2021/03/20 06:04:05;;;;;;;;;;;;;;;;;;2081501;28;19968;-77
2021/03/20 06:05:18;;;;;;;;;;;;;;;;;;2088116;28;20011;-78
2021/03/20 06:06:45;;;;;;;;;;;;;;;;;;2075682;28;19921;-78
2021/03/20 06:08:09;;;;;;;;;;;;;;;;;;2082803;28;19921;-77
2021/03/20 06:09:28;;;;;;;;;;;;;;;;;;2082399;28;19975;-77
2021/03/20 06:10:29;;;;;;;;;;;;;;;;;;2083095;28;19936;-77
2021/03/20 06:11:43;;;;;;;;;;;;;;;;;;2090570;28;19921;-77
2021/03/20 06:12:46;;;;;;;;;;;;;;;;;;2088315;28;19929;-77
2021/03/20 06:13:47;;;;;;;;;;;;;;;;;;2090990;28;19924;-77
2021/03/20 06:15:12;;;;;;;;;;;;;;;;;;2098476;28;19920;-77
2021/03/20 06:16:32;;;;;;;;;;;;;;;;;;2081992;28;19952;-77
2021/03/20 06:17:42;;;;;;;;;;;;;;;;;;2081847;28;20396;-77
2021/03/20 06:19:02;;;;;;;;;;;;;;;;;;2081985;28;19921;-76
2021/03/20 06:20:09;;;;;;;;;;;;;;;;;;2082334;28;20265;-76
2021/03/20 06:21:16;;;;;;;;;;;;;;;;;;2083009;28;20000;-76
2021/03/20 06:22:55;;;;;;;;;;;;;;;;;;2082679;28;20008;-76
2021/03/20 06:24:20;;;;;;;;;;;;;;;;;;2081557;28;19967;-77
2021/03/20 06:25:27;;;;;;;;;;;;;;;;;;2081876;28;19928;-76
2021/03/20 06:26:32;;;;;;;;;;;;;;;;;;2081868;28;20291;-75
2021/03/20 06:27:35;;;;;;;;;;;;;;;;;;2082630;28;19925;-77
2021/03/20 06:28:44;;;;;;;;;;;;;;;;;;2084255;28;19921;-77
2021/03/20 06:30:09;;;;;;;;;;;;;;;;;;2084582;28;19974;-77
2021/03/20 06:31:18;;;;;;;;;;;;;;;;;;2082197;28;19963;-77
2021/03/20 06:32:23;;;;;;;;;;;;;;;;;;2082682;28;20020;-76
2021/03/20 06:34:00;;;;;;;;;;;;;;;;;;2082711;28;19921;-75
2021/03/20 06:35:23;;;;;;;;;;;;;;;;;;2081500;28;19954;-76
2021/03/20 06:36:34;;;;;;;;;;;;;;;;;;2073660;28;19972;-76
2021/03/20 06:37:37;;;;;;;;;;;;;;;;;;2079048;28;19964;-75
2021/03/20 06:39:04;;;;;;;;;;;;;;;;;;2082503;28;20019;-75
2021/03/20 06:40:16;;;;;;;;;;;;;;;;;;2082598;28;20008;-77
2021/03/20 06:41:17;;;;;;;;;;;;;;;;;;2082647;28;19925;-76
2021/03/20 06:42:24;;;;;;;;;;;;;;;;;;2090134;28;19921;-76
2021/03/20 06:43:28;;;;;;;;;;;;;;;;;;2089628;28;20007;-77
2021/03/20 06:44:32;;;;;;;;;;;;;;;;;;2081925;28;19960;-77
2021/03/20 06:45:33;;;;;;;;;;;;;;;;;;2082703;28;20008;-77
2021/03/20 06:46:35;;;;;;;;;;;;;;;;;;2082348;28;19983;-77
2021/03/20 06:47:39;;;;;;;;;;;;;;;;;;2090210;28;19929;-76
2021/03/20 06:48:41;;;;;;;;;;;;;;;;;;2089927;28;19921;-76
2021/03/20 06:49:52;;;;;;;;;;;;;;;;;;2081906;28;19921;-77
2021/03/20 06:50:54;;;;;;;;;;;;;;;;;;2082857;28;19921;-77
2021/03/20 06:51:56;;;;;;;;;;;;;;;;;;2083971;28;20412;-77
2021/03/20 06:53:00;;;;;;;;;;;;;;;;;;2084115;28;19967;-76
2021/03/20 06:54:04;;;;;;;;;;;;;;;;;;2091726;28;20422;-76
2021/03/20 06:55:08;;;;;;;;;;;;;;;;;;2091491;28;20045;-79
2021/03/20 06:56:10;;;;;;;;;;;;;;;;;;2083997;28;19921;-80
2021/03/20 06:57:11;;;;;;;;;;;;;;;;;;2083928;28;19928;-79
2021/03/20 06:58:32;;;;;;;;;;;;;;;;;;2084166;28;20309;-79
2021/03/20 06:59:33;;;;;;;;;;;;;;;;;;2084481;28;19928;-78
2021/03/20 07:00:35;;;;;;;;;;;;;;;;;;2084100;28;20300;-77
2021/03/20 07:01:42;;;;;;;;;;;;;;;;;;2083858;28;20327;-77
2021/03/20 07:03:00;;;;;;;;;;;;;;;;;;2084162;28;19996;-78
2021/03/20 07:04:20;;;;;;;;;;;;;;;;;;2084518;28;19928;-78
2021/03/20 07:05:33;;;;;;;;;;;;;;;;;;2083988;28;20358;-80
2021/03/20 07:06:34;;;;;;;;;;;;;;;;;;2084046;28;19921;-79
2021/03/20 07:07:54;;;;;;;;;;;;;;;;;;2091862;28;19925;-81
2021/03/20 07:08:55;;;;;;;;;;;;;;;;;;2089201;28;20019;-72
2021/03/20 07:09:56;;;;;;;;;;;;;;;;;;2083484;28;20292;-71
2021/03/20 07:10:57;;;;;;;;;;;;;;;;;;2091552;28;19924;-72
2021/03/20 07:12:12;;;;;;;;;;;;;;;;;;2091641;28;20007;-73
2021/03/20 07:13:15;;;;;;;;;;;;;;;;;;2083881;28;20419;-72
2021/03/20 07:14:16;;;;;;;;;;;;;;;;;;2083790;28;20273;-72
2021/03/20 07:15:20;;;;;;;;;;;;;;;;;;2091505;28;19954;-72
2021/03/20 07:16:23;;;;;;;;;;;;;;;;;;2090911;28;19966;-72
2021/03/20 07:17:26;;;;;;;;;;;;;;;;;;2091538;28;20388;-75
2021/03/20 07:18:31;;;;;;;;;;;;;;;;;;2091220;28;19932;-73
2021/03/20 07:19:32;;;;;;;;;;;;;;;;;;2083228;28;20388;-74
2021/03/20 07:20:39;;;;;;;;;;;;;;;;;;2083235;28;19970;-73
2021/03/20 07:21:42;;;;;;;;;;;;;;;;;;2084115;28;20269;-74
2021/03/20 07:22:44;;;;;;;;;;;;;;;;;;2091432;28;20007;-73
2021/03/20 07:23:53;;;;;;;;;;;;;;;;;;2083570;28;19966;-73
2021/03/20 07:24:54;;;;;;;;;;;;;;;;;;2083301;28;20036;-73
2021/03/20 07:26:06;;;;;;;;;;;;;;;;;;2091460;28;20011;-73
2021/03/20 07:27:13;;;;;;;;;;;;;;;;;;2089895;28;20458;-73
2021/03/20 07:28:16;;;;;;;;;;;;;;;;;;2083779;28;20299;-73
2021/03/20 07:29:18;;;;;;;;;;;;;;;;;;2083805;28;19925;-75
2021/03/20 07:30:46;;;;;;;;;;;;;;;;;;2084119;28;19928;-74
2021/03/20 07:31:47;;;;;;;;;;;;;;;;;;2082729;28;19932;-74
2021/03/20 07:32:48;;;;;;;;;;;;;;;;;;2084260;28;20268;-74
2021/03/20 07:33:52;;;;;;;;;;;;;;;;;;2083656;28;20280;-73
2021/03/20 07:34:55;;;;;;;;;;;;;;;;;;2084043;28;19920;-74
2021/03/20 07:36:16;;;;;;;;;;;;;;;;;;2083770;28;20019;-73
2021/03/20 07:37:17;;;;;;;;;;;;;;;;;;2083177;28;20019;-73
2021/03/20 07:38:27;;;;;;;;;;;;;;;;;;2091295;28;20000;-72
2021/03/20 07:39:36;;;;;;;;;;;;;;;;;;2090778;28;19974;-73
2021/03/20 07:40:37;;;;;;;;;;;;;;;;;;2083955;28;19968;-72
2021/03/20 07:41:57;;;;;;;;;;;;;;;;;;2083103;28;19921;-72
2021/03/20 07:43:10;;;;;;;;;;;;;;;;;;2079021;28;19921;-72
2021/03/20 07:44:11;;;;;;;;;;;;;;;;;;2093261;28;19921;-73